sensor_id;sensor_type;location;lat;lon;timestamp;temperature;humidity
20487;DHT22;10402;49.012;8.370;2024-03-07T00:01:17;9.30;96.30
20487;DHT22;10402;49.012;8.370;2024-03-07T00:03:43;9.30;96.40
20487;DHT22;10402;49.012;8.370;2024-03-07T00:06:10;9.30;96.40
20487;DHT22;10402;49.012;8.370;2024-03-07T00:08:35;9.30;96.50
20487;DHT22;10402;49.012;8.370;2024-03-07T00:11:01;9.20;96.40
20487;DHT22;10402;49.012;8.370;2024-03-07T00:13:27;9.20;96.40
20487;DHT22;10402;49.012;8.370;2024-03-07T00:15:53;9.20;96.40
20487;DHT22;10402;49.012;8.370;2024-03-07T00:18:18;9.10;96.50
20487;DHT22;10402;49.012;8.370;2024-03-07T00:20:44;9.10;96.60
20487;DHT22;10402;49.012;8.370;2024-03-07T00:23:10;9.10;96.60
20487;DHT22;10402;49.012;8.370;2024-03-07T00:25:35;8.90;96.70
20487;DHT22;10402;49.012;8.370;2024-03-07T00:28:01;8.90;96.80
20487;DHT22;10402;49.012;8.370;2024-03-07T00:30:29;8.90;96.80
20487;DHT22;10402;49.012;8.370;2024-03-07T00:32:56;8.90;97.00
20487;DHT22;10402;49.012;8.370;2024-03-07T00:35:22;8.90;97.00
20487;DHT22;10402;49.012;8.370;2024-03-07T00:37:47;8.80;96.80
20487;DHT22;10402;49.012;8.370;2024-03-07T00:40:13;8.80;97.00
20487;DHT22;10402;49.012;8.370;2024-03-07T00:42:39;8.80;97.00
20487;DHT22;10402;49.012;8.370;2024-03-07T00:45:05;8.90;97.20
20487;DHT22;10402;49.012;8.370;2024-03-07T00:47:30;8.90;96.80
20487;DHT22;10402;49.012;8.370;2024-03-07T00:49:57;8.80;96.80
20487;DHT22;10402;49.012;8.370;2024-03-07T00:52:23;8.70;96.80
20487;DHT22;10402;49.012;8.370;2024-03-07T00:54:48;8.70;96.90
20487;DHT22;10402;49.012;8.370;2024-03-07T00:57:15;8.60;97.10
20487;DHT22;10402;49.012;8.370;2024-03-07T00:59:40;8.70;97.20
20487;DHT22;10402;49.012;8.370;2024-03-07T01:02:06;8.60;97.00
20487;DHT22;10402;49.012;8.370;2024-03-07T01:04:32;8.60;97.10
20487;DHT22;10402;49.012;8.370;2024-03-07T01:06:59;8.50;97.20
20487;DHT22;10402;49.012;8.370;2024-03-07T01:09:28;8.60;97.20
20487;DHT22;10402;49.012;8.370;2024-03-07T01:11:54;8.60;97.20
20487;DHT22;10402;49.012;8.370;2024-03-07T01:14:20;8.50;97.20
20487;DHT22;10402;49.012;8.370;2024-03-07T01:16:46;8.60;97.20
20487;DHT22;10402;49.012;8.370;2024-03-07T01:19:12;8.50;97.20
20487;DHT22;10402;49.012;8.370;2024-03-07T01:21:38;8.50;96.90
20487;DHT22;10402;49.012;8.370;2024-03-07T01:24:04;8.40;97.20
20487;DHT22;10402;49.012;8.370;2024-03-07T01:26:30;8.40;97.20
20487;DHT22;10402;49.012;8.370;2024-03-07T01:28:56;8.40;97.20
20487;DHT22;10402;49.012;8.370;2024-03-07T01:31:23;8.40;97.10
20487;DHT22;10402;49.012;8.370;2024-03-07T01:33:49;8.40;97.00
20487;DHT22;10402;49.012;8.370;2024-03-07T01:36:15;8.40;97.00
20487;DHT22;10402;49.012;8.370;2024-03-07T01:38:41;8.40;96.90
20487;DHT22;10402;49.012;8.370;2024-03-07T01:41:06;8.30;96.80
20487;DHT22;10402;49.012;8.370;2024-03-07T01:43:32;8.30;96.90
20487;DHT22;10402;49.012;8.370;2024-03-07T01:45:57;8.20;96.90
20487;DHT22;10402;49.012;8.370;2024-03-07T01:48:27;8.20;96.90
20487;DHT22;10402;49.012;8.370;2024-03-07T01:50:58;8.20;96.60
20487;DHT22;10402;49.012;8.370;2024-03-07T01:53:28;8.10;96.60
20487;DHT22;10402;49.012;8.370;2024-03-07T01:55:54;8.10;96.60
20487;DHT22;10402;49.012;8.370;2024-03-07T01:58:21;8.10;96.60
20487;DHT22;10402;49.012;8.370;2024-03-07T02:00:47;8.10;96.10
20487;DHT22;10402;49.012;8.370;2024-03-07T02:03:13;8.10;96.00
20487;DHT22;10402;49.012;8.370;2024-03-07T02:05:40;8.10;95.80
20487;DHT22;10402;49.012;8.370;2024-03-07T02:08:05;8.10;95.60
20487;DHT22;10402;49.012;8.370;2024-03-07T02:10:31;8.20;95.50
20487;DHT22;10402;49.012;8.370;2024-03-07T02:12:57;8.10;95.40
20487;DHT22;10402;49.012;8.370;2024-03-07T02:15:22;8.10;95.10
20487;DHT22;10402;49.012;8.370;2024-03-07T02:17:48;8.20;95.20
20487;DHT22;10402;49.012;8.370;2024-03-07T02:20:13;8.20;95.10
20487;DHT22;10402;49.012;8.370;2024-03-07T02:22:39;8.10;94.70
20487;DHT22;10402;49.012;8.370;2024-03-07T02:25:06;8.20;94.30
20487;DHT22;10402;49.012;8.370;2024-03-07T02:27:32;8.10;94.30
20487;DHT22;10402;49.012;8.370;2024-03-07T02:29:58;8.10;94.20
20487;DHT22;10402;49.012;8.370;2024-03-07T02:32:23;8.10;94.20
20487;DHT22;10402;49.012;8.370;2024-03-07T02:34:49;8.10;94.10
20487;DHT22;10402;49.012;8.370;2024-03-07T02:37:14;8.10;94.20
20487;DHT22;10402;49.012;8.370;2024-03-07T02:39:40;8.10;93.90
20487;DHT22;10402;49.012;8.370;2024-03-07T02:42:06;8.10;94.00
20487;DHT22;10402;49.012;8.370;2024-03-07T02:44:31;8.00;94.30
20487;DHT22;10402;49.012;8.370;2024-03-07T02:47:00;7.90;94.00
20487;DHT22;10402;49.012;8.370;2024-03-07T02:49:29;7.90;94.30
20487;DHT22;10402;49.012;8.370;2024-03-07T02:51:54;7.90;94.40
20487;DHT22;10402;49.012;8.370;2024-03-07T02:54:20;7.80;94.70
20487;DHT22;10402;49.012;8.370;2024-03-07T02:56:46;7.80;94.60
20487;DHT22;10402;49.012;8.370;2024-03-07T02:59:12;7.80;94.70
20487;DHT22;10402;49.012;8.370;2024-03-07T03:01:37;7.70;94.50
20487;DHT22;10402;49.012;8.370;2024-03-07T03:04:03;7.70;94.70
20487;DHT22;10402;49.012;8.370;2024-03-07T03:06:28;7.70;94.60
20487;DHT22;10402;49.012;8.370;2024-03-07T03:08:54;7.60;94.90
20487;DHT22;10402;49.012;8.370;2024-03-07T03:11:20;7.50;94.70
20487;DHT22;10402;49.012;8.370;2024-03-07T03:13:46;7.40;94.80
20487;DHT22;10402;49.012;8.370;2024-03-07T03:16:13;7.40;95.10
20487;DHT22;10402;49.012;8.370;2024-03-07T03:18:39;7.40;95.00
20487;DHT22;10402;49.012;8.370;2024-03-07T03:21:05;7.30;94.90
20487;DHT22;10402;49.012;8.370;2024-03-07T03:23:30;7.30;94.80
20487;DHT22;10402;49.012;8.370;2024-03-07T03:25:56;7.30;94.80
20487;DHT22;10402;49.012;8.370;2024-03-07T03:28:22;7.20;94.70
20487;DHT22;10402;49.012;8.370;2024-03-07T03:30:49;7.20;94.60
20487;DHT22;10402;49.012;8.370;2024-03-07T03:33:14;7.20;94.40
20487;DHT22;10402;49.012;8.370;2024-03-07T03:35:43;7.20;94.20
20487;DHT22;10402;49.012;8.370;2024-03-07T03:38:08;7.20;94.20
20487;DHT22;10402;49.012;8.370;2024-03-07T03:40:34;7.20;94.00
20487;DHT22;10402;49.012;8.370;2024-03-07T03:43:00;7.10;93.80
20487;DHT22;10402;49.012;8.370;2024-03-07T03:45:26;7.00;93.90
20487;DHT22;10402;49.012;8.370;2024-03-07T03:47:52;7.10;93.90
20487;DHT22;10402;49.012;8.370;2024-03-07T03:50:18;7.10;93.80
20487;DHT22;10402;49.012;8.370;2024-03-07T03:52:44;7.00;93.50
20487;DHT22;10402;49.012;8.370;2024-03-07T03:55:10;6.90;93.60
20487;DHT22;10402;49.012;8.370;2024-03-07T03:57:38;6.80;93.60
20487;DHT22;10402;49.012;8.370;2024-03-07T04:00:05;6.80;93.70
20487;DHT22;10402;49.012;8.370;2024-03-07T04:02:38;6.70;93.80
20487;DHT22;10402;49.012;8.370;2024-03-07T04:05:04;6.70;93.90
20487;DHT22;10402;49.012;8.370;2024-03-07T04:07:30;6.70;93.80
20487;DHT22;10402;49.012;8.370;2024-03-07T04:09:57;6.70;93.70
20487;DHT22;10402;49.012;8.370;2024-03-07T04:12:24;6.70;93.60
20487;DHT22;10402;49.012;8.370;2024-03-07T04:14:53;6.60;93.60
20487;DHT22;10402;49.012;8.370;2024-03-07T04:17:20;6.60;93.70
20487;DHT22;10402;49.012;8.370;2024-03-07T04:19:46;6.50;93.60
20487;DHT22;10402;49.012;8.370;2024-03-07T04:22:12;6.50;93.60
20487;DHT22;10402;49.012;8.370;2024-03-07T04:24:38;6.60;93.60
20487;DHT22;10402;49.012;8.370;2024-03-07T04:27:04;6.50;93.40
20487;DHT22;10402;49.012;8.370;2024-03-07T04:29:33;6.50;93.40
20487;DHT22;10402;49.012;8.370;2024-03-07T04:32:03;6.50;93.30
20487;DHT22;10402;49.012;8.370;2024-03-07T04:34:29;6.40;93.40
20487;DHT22;10402;49.012;8.370;2024-03-07T04:36:56;6.40;93.50
20487;DHT22;10402;49.012;8.370;2024-03-07T04:39:22;6.30;93.30
20487;DHT22;10402;49.012;8.370;2024-03-07T04:41:53;6.30;93.40
20487;DHT22;10402;49.012;8.370;2024-03-07T04:44:19;6.30;93.60
20487;DHT22;10402;49.012;8.370;2024-03-07T04:46:48;6.30;93.60
20487;DHT22;10402;49.012;8.370;2024-03-07T04:49:15;6.30;93.60
20487;DHT22;10402;49.012;8.370;2024-03-07T04:51:40;6.20;93.40
20487;DHT22;10402;49.012;8.370;2024-03-07T04:54:06;6.20;93.30
20487;DHT22;10402;49.012;8.370;2024-03-07T04:56:32;6.10;93.60
20487;DHT22;10402;49.012;8.370;2024-03-07T04:58:57;6.00;93.60
20487;DHT22;10402;49.012;8.370;2024-03-07T05:01:23;6.00;93.70
20487;DHT22;10402;49.012;8.370;2024-03-07T05:03:48;6.00;93.60
20487;DHT22;10402;49.012;8.370;2024-03-07T05:06:14;6.00;93.60
20487;DHT22;10402;49.012;8.370;2024-03-07T05:08:41;6.00;93.50
20487;DHT22;10402;49.012;8.370;2024-03-07T05:11:07;6.00;93.60
20487;DHT22;10402;49.012;8.370;2024-03-07T05:13:32;5.90;93.20
20487;DHT22;10402;49.012;8.370;2024-03-07T05:15:58;5.90;93.40
20487;DHT22;10402;49.012;8.370;2024-03-07T05:18:24;5.90;93.40
20487;DHT22;10402;49.012;8.370;2024-03-07T05:20:49;5.90;93.50
20487;DHT22;10402;49.012;8.370;2024-03-07T05:23:15;5.90;93.30
20487;DHT22;10402;49.012;8.370;2024-03-07T05:25:40;5.90;93.30
20487;DHT22;10402;49.012;8.370;2024-03-07T05:28:06;5.80;93.20
20487;DHT22;10402;49.012;8.370;2024-03-07T05:30:32;5.80;93.10
20487;DHT22;10402;49.012;8.370;2024-03-07T05:32:58;5.80;93.00
20487;DHT22;10402;49.012;8.370;2024-03-07T05:35:26;5.80;93.10
20487;DHT22;10402;49.012;8.370;2024-03-07T05:37:54;5.80;92.90
20487;DHT22;10402;49.012;8.370;2024-03-07T05:40:22;5.70;92.80
20487;DHT22;10402;49.012;8.370;2024-03-07T05:42:48;5.70;92.80
20487;DHT22;10402;49.012;8.370;2024-03-07T05:45:13;5.70;92.80
20487;DHT22;10402;49.012;8.370;2024-03-07T05:47:40;5.60;92.80
20487;DHT22;10402;49.012;8.370;2024-03-07T05:50:06;5.50;92.80
20487;DHT22;10402;49.012;8.370;2024-03-07T05:52:32;5.50;92.80
20487;DHT22;10402;49.012;8.370;2024-03-07T05:54:58;5.50;93.00
20487;DHT22;10402;49.012;8.370;2024-03-07T05:57:24;5.50;92.90
20487;DHT22;10402;49.012;8.370;2024-03-07T05:59:50;5.50;92.90
20487;DHT22;10402;49.012;8.370;2024-03-07T06:02:16;5.50;92.70
20487;DHT22;10402;49.012;8.370;2024-03-07T06:04:42;5.50;92.80
20487;DHT22;10402;49.012;8.370;2024-03-07T06:07:08;5.50;92.70
20487;DHT22;10402;49.012;8.370;2024-03-07T06:09:36;5.40;92.70
20487;DHT22;10402;49.012;8.370;2024-03-07T06:12:02;5.40;92.60
20487;DHT22;10402;49.012;8.370;2024-03-07T06:14:29;5.30;92.70
20487;DHT22;10402;49.012;8.370;2024-03-07T06:16:55;5.30;92.70
20487;DHT22;10402;49.012;8.370;2024-03-07T06:19:23;5.30;92.70
20487;DHT22;10402;49.012;8.370;2024-03-07T06:21:49;5.20;92.70
20487;DHT22;10402;49.012;8.370;2024-03-07T06:24:14;5.20;92.80
20487;DHT22;10402;49.012;8.370;2024-03-07T06:26:41;5.20;92.90
20487;DHT22;10402;49.012;8.370;2024-03-07T06:29:06;5.20;92.80
20487;DHT22;10402;49.012;8.370;2024-03-07T06:31:33;5.20;92.80
20487;DHT22;10402;49.012;8.370;2024-03-07T06:33:58;5.20;92.80
20487;DHT22;10402;49.012;8.370;2024-03-07T06:36:24;5.20;92.80
20487;DHT22;10402;49.012;8.370;2024-03-07T06:38:50;5.20;92.60
20487;DHT22;10402;49.012;8.370;2024-03-07T06:41:16;5.20;92.50
20487;DHT22;10402;49.012;8.370;2024-03-07T06:43:43;5.20;92.50
20487;DHT22;10402;49.012;8.370;2024-03-07T06:46:10;5.10;92.40
20487;DHT22;10402;49.012;8.370;2024-03-07T06:48:35;5.10;92.50
20487;DHT22;10402;49.012;8.370;2024-03-07T06:51:01;5.10;92.60
20487;DHT22;10402;49.012;8.370;2024-03-07T06:53:26;5.10;92.70
20487;DHT22;10402;49.012;8.370;2024-03-07T06:55:54;5.10;92.60
20487;DHT22;10402;49.012;8.370;2024-03-07T06:58:22;5.10;92.50
20487;DHT22;10402;49.012;8.370;2024-03-07T07:00:48;5.10;92.50
20487;DHT22;10402;49.012;8.370;2024-03-07T07:03:17;5.10;92.60
20487;DHT22;10402;49.012;8.370;2024-03-07T07:05:44;5.10;92.50
20487;DHT22;10402;49.012;8.370;2024-03-07T07:08:10;5.10;92.40
20487;DHT22;10402;49.012;8.370;2024-03-07T07:10:36;5.10;92.50
20487;DHT22;10402;49.012;8.370;2024-03-07T07:13:02;5.10;92.50
20487;DHT22;10402;49.012;8.370;2024-03-07T07:15:29;5.20;92.30
20487;DHT22;10402;49.012;8.370;2024-03-07T07:17:57;5.20;92.40
20487;DHT22;10402;49.012;8.370;2024-03-07T07:20:22;5.20;92.20
20487;DHT22;10402;49.012;8.370;2024-03-07T07:22:49;5.20;92.10
20487;DHT22;10402;49.012;8.370;2024-03-07T07:25:15;5.30;92.20
20487;DHT22;10402;49.012;8.370;2024-03-07T07:27:49;5.40;92.20
20487;DHT22;10402;49.012;8.370;2024-03-07T07:30:17;5.50;92.00
20487;DHT22;10402;49.012;8.370;2024-03-07T07:32:43;5.50;91.70
20487;DHT22;10402;49.012;8.370;2024-03-07T07:35:10;5.40;91.50
20487;DHT22;10402;49.012;8.370;2024-03-07T07:37:43;5.50;91.70
20487;DHT22;10402;49.012;8.370;2024-03-07T07:40:13;5.50;91.60
20487;DHT22;10402;49.012;8.370;2024-03-07T07:42:40;5.50;91.50
20487;DHT22;10402;49.012;8.370;2024-03-07T07:45:08;5.60;91.60
20487;DHT22;10402;49.012;8.370;2024-03-07T07:47:38;5.70;91.30
20487;DHT22;10402;49.012;8.370;2024-03-07T07:50:07;5.70;91.20
20487;DHT22;10402;49.012;8.370;2024-03-07T07:52:40;5.80;91.20
20487;DHT22;10402;49.012;8.370;2024-03-07T07:55:06;5.90;91.20
20487;DHT22;10402;49.012;8.370;2024-03-07T07:57:43;5.90;90.60
20487;DHT22;10402;49.012;8.370;2024-03-07T08:00:11;5.90;90.30
20487;DHT22;10402;49.012;8.370;2024-03-07T08:02:37;5.90;90.20
20487;DHT22;10402;49.012;8.370;2024-03-07T08:05:03;5.90;89.50
20487;DHT22;10402;49.012;8.370;2024-03-07T08:07:31;5.90;89.40
20487;DHT22;10402;49.012;8.370;2024-03-07T08:09:56;5.90;88.60
20487;DHT22;10402;49.012;8.370;2024-03-07T08:12:22;5.90;88.40
20487;DHT22;10402;49.012;8.370;2024-03-07T08:14:48;5.90;89.00
20487;DHT22;10402;49.012;8.370;2024-03-07T08:17:13;6.00;88.20
20487;DHT22;10402;49.012;8.370;2024-03-07T08:19:39;6.10;88.20
20487;DHT22;10402;49.012;8.370;2024-03-07T08:22:05;6.20;88.20
20487;DHT22;10402;49.012;8.370;2024-03-07T08:24:30;6.20;87.50
20487;DHT22;10402;49.012;8.370;2024-03-07T08:26:57;6.30;86.10
20487;DHT22;10402;49.012;8.370;2024-03-07T08:29:22;6.20;86.00
20487;DHT22;10402;49.012;8.370;2024-03-07T08:31:49;6.20;85.80
20487;DHT22;10402;49.012;8.370;2024-03-07T08:34:15;6.30;86.40
20487;DHT22;10402;49.012;8.370;2024-03-07T08:36:40;6.30;86.10
20487;DHT22;10402;49.012;8.370;2024-03-07T08:39:05;6.40;86.20
20487;DHT22;10402;49.012;8.370;2024-03-07T08:41:36;6.40;85.60
20487;DHT22;10402;49.012;8.370;2024-03-07T08:44:06;6.40;85.80
20487;DHT22;10402;49.012;8.370;2024-03-07T08:46:32;6.50;84.80
20487;DHT22;10402;49.012;8.370;2024-03-07T08:48:57;6.50;85.10
20487;DHT22;10402;49.012;8.370;2024-03-07T08:51:23;6.50;83.00
20487;DHT22;10402;49.012;8.370;2024-03-07T08:53:48;6.50;83.20
20487;DHT22;10402;49.012;8.370;2024-03-07T08:56:14;6.50;83.40
20487;DHT22;10402;49.012;8.370;2024-03-07T08:58:39;6.50;82.80
20487;DHT22;10402;49.012;8.370;2024-03-07T09:01:05;6.50;82.00
20487;DHT22;10402;49.012;8.370;2024-03-07T09:03:30;6.60;81.60
20487;DHT22;10402;49.012;8.370;2024-03-07T09:05:56;6.60;80.80
20487;DHT22;10402;49.012;8.370;2024-03-07T09:08:21;6.60;79.90
20487;DHT22;10402;49.012;8.370;2024-03-07T09:10:47;6.60;79.90
20487;DHT22;10402;49.012;8.370;2024-03-07T09:13:12;6.70;79.50
20487;DHT22;10402;49.012;8.370;2024-03-07T09:15:38;6.70;78.90
20487;DHT22;10402;49.012;8.370;2024-03-07T09:18:04;6.70;79.00
20487;DHT22;10402;49.012;8.370;2024-03-07T09:20:29;6.70;78.20
20487;DHT22;10402;49.012;8.370;2024-03-07T09:22:56;6.80;78.80
20487;DHT22;10402;49.012;8.370;2024-03-07T09:25:22;6.80;79.00
20487;DHT22;10402;49.012;8.370;2024-03-07T09:27:48;6.90;78.50
20487;DHT22;10402;49.012;8.370;2024-03-07T09:30:14;6.90;78.60
20487;DHT22;10402;49.012;8.370;2024-03-07T09:32:49;7.00;77.80
20487;DHT22;10402;49.012;8.370;2024-03-07T09:35:15;7.00;77.40
20487;DHT22;10402;49.012;8.370;2024-03-07T09:37:42;7.00;77.30
20487;DHT22;10402;49.012;8.370;2024-03-07T09:40:09;7.00;77.10
20487;DHT22;10402;49.012;8.370;2024-03-07T09:42:42;7.00;76.70
20487;DHT22;10402;49.012;8.370;2024-03-07T09:45:12;7.00;77.50
20487;DHT22;10402;49.012;8.370;2024-03-07T09:47:39;7.00;77.40
20487;DHT22;10402;49.012;8.370;2024-03-07T09:50:05;7.00;76.70
20487;DHT22;10402;49.012;8.370;2024-03-07T09:52:33;7.10;76.80
20487;DHT22;10402;49.012;8.370;2024-03-07T09:55:00;7.10;76.70
20487;DHT22;10402;49.012;8.370;2024-03-07T09:57:26;7.10;76.60
20487;DHT22;10402;49.012;8.370;2024-03-07T09:59:53;7.20;76.90
20487;DHT22;10402;49.012;8.370;2024-03-07T10:02:19;7.20;77.00
20487;DHT22;10402;49.012;8.370;2024-03-07T10:04:51;7.30;76.50
20487;DHT22;10402;49.012;8.370;2024-03-07T10:07:18;7.30;75.50
20487;DHT22;10402;49.012;8.370;2024-03-07T10:09:44;7.20;76.10
20487;DHT22;10402;49.012;8.370;2024-03-07T10:12:10;7.20;75.40
20487;DHT22;10402;49.012;8.370;2024-03-07T10:14:38;7.20;75.80
20487;DHT22;10402;49.012;8.370;2024-03-07T10:17:04;7.20;75.40
20487;DHT22;10402;49.012;8.370;2024-03-07T10:19:29;7.20;76.60
20487;DHT22;10402;49.012;8.370;2024-03-07T10:21:56;7.30;75.80
20487;DHT22;10402;49.012;8.370;2024-03-07T10:24:27;7.40;76.00
20487;DHT22;10402;49.012;8.370;2024-03-07T10:26:54;7.40;75.80
20487;DHT22;10402;49.012;8.370;2024-03-07T10:29:23;7.50;75.70
20487;DHT22;10402;49.012;8.370;2024-03-07T10:31:50;7.50;76.10
20487;DHT22;10402;49.012;8.370;2024-03-07T10:34:15;7.60;76.50
20487;DHT22;10402;49.012;8.370;2024-03-07T10:36:43;7.70;76.20
20487;DHT22;10402;49.012;8.370;2024-03-07T10:39:08;7.70;75.40
20487;DHT22;10402;49.012;8.370;2024-03-07T10:41:45;7.80;76.00
20487;DHT22;10402;49.012;8.370;2024-03-07T10:44:19;7.80;76.40
20487;DHT22;10402;49.012;8.370;2024-03-07T10:46:55;7.90;76.00
20487;DHT22;10402;49.012;8.370;2024-03-07T10:49:21;7.90;75.70
20487;DHT22;10402;49.012;8.370;2024-03-07T10:52:02;7.90;75.70
20487;DHT22;10402;49.012;8.370;2024-03-07T10:55:07;7.90;75.50
20487;DHT22;10402;49.012;8.370;2024-03-07T10:57:54;7.80;76.00
20487;DHT22;10402;49.012;8.370;2024-03-07T11:00:22;7.90;75.90
20487;DHT22;10402;49.012;8.370;2024-03-07T11:03:06;7.90;76.20
20487;DHT22;10402;49.012;8.370;2024-03-07T11:05:34;8.00;75.70
20487;DHT22;10402;49.012;8.370;2024-03-07T11:08:02;8.00;75.90
20487;DHT22;10402;49.012;8.370;2024-03-07T11:10:32;8.00;76.10
20487;DHT22;10402;49.012;8.370;2024-03-07T11:12:59;8.10;76.30
20487;DHT22;10402;49.012;8.370;2024-03-07T11:15:26;8.20;76.00
20487;DHT22;10402;49.012;8.370;2024-03-07T11:17:53;8.20;75.40
20487;DHT22;10402;49.012;8.370;2024-03-07T11:20:26;8.20;75.70
20487;DHT22;10402;49.012;8.370;2024-03-07T11:22:53;8.20;75.80
20487;DHT22;10402;49.012;8.370;2024-03-07T11:25:22;8.20;74.40
20487;DHT22;10402;49.012;8.370;2024-03-07T11:27:58;8.20;74.40
20487;DHT22;10402;49.012;8.370;2024-03-07T11:30:25;8.20;74.90
20487;DHT22;10402;49.012;8.370;2024-03-07T11:32:51;8.30;74.80
20487;DHT22;10402;49.012;8.370;2024-03-07T11:35:33;8.30;74.60
20487;DHT22;10402;49.012;8.370;2024-03-07T11:38:02;8.30;74.30
20487;DHT22;10402;49.012;8.370;2024-03-07T11:42:56;8.20;74.70
20487;DHT22;10402;49.012;8.370;2024-03-07T11:45:31;8.30;75.00
20487;DHT22;10402;49.012;8.370;2024-03-07T11:48:04;8.30;74.80
20487;DHT22;10402;49.012;8.370;2024-03-07T11:50:38;8.30;75.40
20487;DHT22;10402;49.012;8.370;2024-03-07T11:53:06;8.40;74.80
20487;DHT22;10402;49.012;8.370;2024-03-07T11:55:32;8.40;74.80
20487;DHT22;10402;49.012;8.370;2024-03-07T11:58:20;8.30;74.20
20487;DHT22;10402;49.012;8.370;2024-03-07T12:00:51;8.30;74.20
20487;DHT22;10402;49.012;8.370;2024-03-07T12:03:19;8.30;74.00
20487;DHT22;10402;49.012;8.370;2024-03-07T12:05:50;8.30;74.60
20487;DHT22;10402;49.012;8.370;2024-03-07T12:08:16;8.40;74.80
20487;DHT22;10402;49.012;8.370;2024-03-07T12:10:43;8.50;74.80
20487;DHT22;10402;49.012;8.370;2024-03-07T12:13:13;8.50;74.60
20487;DHT22;10402;49.012;8.370;2024-03-07T12:15:42;8.60;74.80
20487;DHT22;10402;49.012;8.370;2024-03-07T12:18:09;8.70;74.40
20487;DHT22;10402;49.012;8.370;2024-03-07T12:20:39;8.80;74.60
20487;DHT22;10402;49.012;8.370;2024-03-07T12:23:06;8.90;74.60
20487;DHT22;10402;49.012;8.370;2024-03-07T12:25:35;8.90;73.70
20487;DHT22;10402;49.012;8.370;2024-03-07T12:28:08;8.90;73.70
20487;DHT22;10402;49.012;8.370;2024-03-07T12:33:12;8.90;73.70
20487;DHT22;10402;49.012;8.370;2024-03-07T12:35:41;9.00;73.80
20487;DHT22;10402;49.012;8.370;2024-03-07T12:38:09;9.00;73.80
20487;DHT22;10402;49.012;8.370;2024-03-07T12:40:37;9.00;73.80
20487;DHT22;10402;49.012;8.370;2024-03-07T12:43:18;9.10;73.90
20487;DHT22;10402;49.012;8.370;2024-03-07T12:45:48;9.10;73.90
20487;DHT22;10402;49.012;8.370;2024-03-07T12:48:15;9.10;73.90
20487;DHT22;10402;49.012;8.370;2024-03-07T12:50:41;9.20;74.00
20487;DHT22;10402;49.012;8.370;2024-03-07T12:53:07;9.20;73.60
20487;DHT22;10402;49.012;8.370;2024-03-07T12:55:41;9.20;73.60
20487;DHT22;10402;49.012;8.370;2024-03-07T12:58:12;9.20;74.00
20487;DHT22;10402;49.012;8.370;2024-03-07T13:00:41;9.40;74.10
20487;DHT22;10402;49.012;8.370;2024-03-07T13:03:08;9.40;74.20
20487;DHT22;10402;49.012;8.370;2024-03-07T13:05:40;9.50;74.00
20487;DHT22;10402;49.012;8.370;2024-03-07T13:08:06;9.50;73.90
20487;DHT22;10402;49.012;8.370;2024-03-07T13:10:41;9.60;73.30
20487;DHT22;10402;49.012;8.370;2024-03-07T13:13:07;9.60;73.20
20487;DHT22;10402;49.012;8.370;2024-03-07T13:15:35;9.70;73.20
20487;DHT22;10402;49.012;8.370;2024-03-07T13:18:02;9.70;73.40
20487;DHT22;10402;49.012;8.370;2024-03-07T13:20:30;9.80;73.10
20487;DHT22;10402;49.012;8.370;2024-03-07T13:22:56;9.80;72.90
20487;DHT22;10402;49.012;8.370;2024-03-07T13:25:25;9.90;72.50
20487;DHT22;10402;49.012;8.370;2024-03-07T13:28:12;9.90;71.80
20487;DHT22;10402;49.012;8.370;2024-03-07T13:30:49;9.90;72.10
20487;DHT22;10402;49.012;8.370;2024-03-07T13:33:15;9.90;71.60
20487;DHT22;10402;49.012;8.370;2024-03-07T13:35:41;9.90;71.00
20487;DHT22;10402;49.012;8.370;2024-03-07T13:38:07;9.90;70.80
20487;DHT22;10402;49.012;8.370;2024-03-07T13:40:34;9.90;70.80
20487;DHT22;10402;49.012;8.370;2024-03-07T13:43:06;9.90;70.90
20487;DHT22;10402;49.012;8.370;2024-03-07T13:45:34;9.80;69.80
20487;DHT22;10402;49.012;8.370;2024-03-07T13:48:05;9.80;70.30
20487;DHT22;10402;49.012;8.370;2024-03-07T13:50:32;9.80;70.70
20487;DHT22;10402;49.012;8.370;2024-03-07T13:52:59;9.70;70.60
20487;DHT22;10402;49.012;8.370;2024-03-07T13:56:25;9.70;69.80
20487;DHT22;10402;49.012;8.370;2024-03-07T14:01:57;9.70;70.90
20487;DHT22;10402;49.012;8.370;2024-03-07T14:07:39;9.80;70.20
20487;DHT22;10402;49.012;8.370;2024-03-07T14:19:35;9.80;68.90
20487;DHT22;10402;49.012;8.370;2024-03-07T14:25:17;9.80;70.00
20487;DHT22;10402;49.012;8.370;2024-03-07T14:28:53;9.90;70.30
20487;DHT22;10402;49.012;8.370;2024-03-07T14:30:52;9.90;69.80
20487;DHT22;10402;49.012;8.370;2024-03-07T14:33:21;9.90;69.60
20487;DHT22;10402;49.012;8.370;2024-03-07T14:38:51;10.10;68.60
20487;DHT22;10402;49.012;8.370;2024-03-07T14:41:18;10.20;68.80
20487;DHT22;10402;49.012;8.370;2024-03-07T14:43:44;10.20;68.50
20487;DHT22;10402;49.012;8.370;2024-03-07T14:46:12;10.30;68.40
20487;DHT22;10402;49.012;8.370;2024-03-07T14:48:40;10.30;67.80
20487;DHT22;10402;49.012;8.370;2024-03-07T14:51:07;10.30;68.10
20487;DHT22;10402;49.012;8.370;2024-03-07T14:53:34;10.30;67.80
20487;DHT22;10402;49.012;8.370;2024-03-07T14:56:00;10.30;67.80
20487;DHT22;10402;49.012;8.370;2024-03-07T14:58:26;10.30;68.10
20487;DHT22;10402;49.012;8.370;2024-03-07T15:00:52;10.30;68.20
20487;DHT22;10402;49.012;8.370;2024-03-07T15:03:20;10.40;68.20
20487;DHT22;10402;49.012;8.370;2024-03-07T15:05:45;10.40;68.10
20487;DHT22;10402;49.012;8.370;2024-03-07T15:08:12;10.40;68.00
20487;DHT22;10402;49.012;8.370;2024-03-07T15:10:44;10.30;67.50
20487;DHT22;10402;49.012;8.370;2024-03-07T15:13:12;10.30;68.20
20487;DHT22;10402;49.012;8.370;2024-03-07T15:15:38;10.20;68.10
20487;DHT22;10402;49.012;8.370;2024-03-07T15:18:05;10.10;68.00
20487;DHT22;10402;49.012;8.370;2024-03-07T15:20:31;10.10;68.50
20487;DHT22;10402;49.012;8.370;2024-03-07T15:22:58;10.10;68.40
20487;DHT22;10402;49.012;8.370;2024-03-07T15:25:25;10.10;68.30
20487;DHT22;10402;49.012;8.370;2024-03-07T15:27:55;10.00;68.30
20487;DHT22;10402;49.012;8.370;2024-03-07T15:30:25;10.00;68.50
20487;DHT22;10402;49.012;8.370;2024-03-07T15:32:57;10.10;68.90
20487;DHT22;10402;49.012;8.370;2024-03-07T15:35:24;10.10;69.00
20487;DHT22;10402;49.012;8.370;2024-03-07T15:37:52;10.10;69.10
20487;DHT22;10402;49.012;8.370;2024-03-07T15:40:19;10.00;68.80
20487;DHT22;10402;49.012;8.370;2024-03-07T15:42:47;10.00;69.00
20487;DHT22;10402;49.012;8.370;2024-03-07T15:45:16;10.00;69.30
20487;DHT22;10402;49.012;8.370;2024-03-07T15:47:46;10.00;69.00
20487;DHT22;10402;49.012;8.370;2024-03-07T15:50:11;10.00;69.00
20487;DHT22;10402;49.012;8.370;2024-03-07T15:52:38;9.90;70.20
20487;DHT22;10402;49.012;8.370;2024-03-07T15:55:06;9.90;70.50
20487;DHT22;10402;49.012;8.370;2024-03-07T15:57:51;9.90;70.60
20487;DHT22;10402;49.012;8.370;2024-03-07T16:00:20;9.90;70.40
20487;DHT22;10402;49.012;8.370;2024-03-07T16:05:16;9.80;70.40
20487;DHT22;10402;49.012;8.370;2024-03-07T16:07:44;9.80;70.70
20487;DHT22;10402;49.012;8.370;2024-03-07T16:10:09;9.90;70.80
20487;DHT22;10402;49.012;8.370;2024-03-07T16:12:35;9.90;70.90
20487;DHT22;10402;49.012;8.370;2024-03-07T16:15:01;9.80;70.80
20487;DHT22;10402;49.012;8.370;2024-03-07T16:17:26;9.80;70.80